createdAt,value
2018-07-05T00:00:46.440Z,0.00
2018-07-05T00:01:46.428Z,0.00
2018-07-05T00:02:51.219Z,0.00
2018-07-05T00:03:46.440Z,0.00
2018-07-05T00:04:46.398Z,0.00
2018-07-05T00:05:46.385Z,0.00
2018-07-05T00:06:46.418Z,0.00
2018-07-05T00:07:46.367Z,0.00
2018-07-05T00:08:46.354Z,0.00
2018-07-05T00:09:46.371Z,0.00
2018-07-05T00:10:46.335Z,0.00
2018-07-05T00:11:46.332Z,0.00
2018-07-05T00:12:46.315Z,0.00
2018-07-05T00:13:46.405Z,0.00
2018-07-05T00:14:46.297Z,0.00
2018-07-05T00:15:46.315Z,0.00
2018-07-05T00:16:46.276Z,0.00
2018-07-05T00:17:46.277Z,0.00
2018-07-05T00:18:46.256Z,0.00
2018-07-05T00:19:46.579Z,0.00
2018-07-05T00:20:46.289Z,0.00
2018-07-05T00:21:46.259Z,0.00
2018-07-05T00:22:46.213Z,0.00
2018-07-05T00:23:46.199Z,0.00
2018-07-05T00:24:46.193Z,0.00
2018-07-05T00:25:46.184Z,0.00
2018-07-05T00:26:46.173Z,0.00
2018-07-05T00:27:46.291Z,0.00
2018-07-05T00:28:46.156Z,0.00
2018-07-05T00:29:46.146Z,0.00
2018-07-05T00:30:46.132Z,0.00
2018-07-05T00:31:46.125Z,0.00
2018-07-05T00:32:46.115Z,0.00
2018-07-05T00:33:46.118Z,0.00
2018-07-05T00:34:46.127Z,0.00
2018-07-05T00:35:46.082Z,0.00
2018-07-05T00:36:46.069Z,0.00
2018-07-05T00:37:46.060Z,0.00
2018-07-05T00:38:46.052Z,0.00
2018-07-05T00:39:46.060Z,0.00
2018-07-05T00:40:46.031Z,0.00
2018-07-05T00:41:46.054Z,0.00
2018-07-05T00:42:46.010Z,0.00
2018-07-05T00:43:45.997Z,0.00
2018-07-05T00:44:45.989Z,0.00
2018-07-05T00:45:46.011Z,0.00
2018-07-05T00:46:45.969Z,0.00
2018-07-05T00:47:45.953Z,0.00
2018-07-05T00:48:45.986Z,0.00
2018-07-05T00:49:45.940Z,0.00
2018-07-05T00:50:45.927Z,0.00
2018-07-05T00:51:45.945Z,0.00
2018-07-05T00:52:45.904Z,0.00
2018-07-05T00:53:45.891Z,0.00
2018-07-05T00:54:45.881Z,0.00
2018-07-05T00:55:45.908Z,0.00
2018-07-05T00:56:45.886Z,0.00
2018-07-05T00:57:45.868Z,0.00
2018-07-05T00:58:45.953Z,0.00
2018-07-05T00:59:45.829Z,0.00
2018-07-05T01:00:46.143Z,0.00
2018-07-05T01:01:45.806Z,0.00
2018-07-05T01:02:45.953Z,0.00
2018-07-05T01:03:50.612Z,0.00
2018-07-05T01:04:45.774Z,0.00
2018-07-05T01:05:45.763Z,0.00
2018-07-05T01:06:45.755Z,0.00
2018-07-05T01:07:45.744Z,0.00
2018-07-05T01:08:45.733Z,0.00
2018-07-05T01:09:45.780Z,0.00
2018-07-05T01:10:45.713Z,0.00
2018-07-05T01:11:45.704Z,0.00
2018-07-05T01:12:45.695Z,0.00
2018-07-05T01:13:45.680Z,0.00
2018-07-05T01:14:45.672Z,0.00
2018-07-05T01:15:45.693Z,0.00
2018-07-05T01:16:45.690Z,0.00
2018-07-05T01:17:45.644Z,0.00
2018-07-05T01:18:45.628Z,0.00
2018-07-05T01:19:45.625Z,0.00
2018-07-05T01:20:45.607Z,0.00
2018-07-05T01:21:45.631Z,0.00
2018-07-05T01:22:45.585Z,0.00
2018-07-05T01:23:45.613Z,0.00
2018-07-05T01:24:45.564Z,0.00
2018-07-05T01:25:45.557Z,0.00
2018-07-05T01:26:45.544Z,0.00
2018-07-05T01:27:45.559Z,0.00
2018-07-05T01:28:45.526Z,0.00
2018-07-05T01:29:45.512Z,0.00
2018-07-05T01:30:45.551Z,0.00
2018-07-05T01:31:45.492Z,0.00
2018-07-05T01:32:45.481Z,0.00
2018-07-05T01:33:45.506Z,0.00
2018-07-05T01:34:45.463Z,0.00
2018-07-05T01:35:45.454Z,0.00
2018-07-05T01:36:45.440Z,0.00
2018-07-05T01:37:45.464Z,0.00
2018-07-05T01:38:45.422Z,0.00
2018-07-05T01:39:45.447Z,0.00
2018-07-05T01:40:45.402Z,0.00
2018-07-05T01:41:45.391Z,0.00
2018-07-05T01:42:45.383Z,0.00
2018-07-05T01:43:45.371Z,0.00
2018-07-05T01:44:45.398Z,0.00
2018-07-05T01:45:45.382Z,0.00
2018-07-05T01:46:45.337Z,0.00
2018-07-05T01:47:45.328Z,0.00
2018-07-05T01:48:45.319Z,0.00
2018-07-05T01:49:45.305Z,0.00
2018-07-05T01:50:45.300Z,0.00
2018-07-05T01:51:45.354Z,0.00
2018-07-05T01:52:45.278Z,0.00
2018-07-05T01:53:45.263Z,0.00
2018-07-05T01:54:45.256Z,0.00
2018-07-05T01:55:45.248Z,0.00
2018-07-05T01:56:45.233Z,0.00
2018-07-05T01:57:45.241Z,0.00
2018-07-05T01:58:45.245Z,0.00
2018-07-05T01:59:45.202Z,0.00
2018-07-05T02:00:45.302Z,0.00
2018-07-05T02:01:45.181Z,0.00
2018-07-05T02:02:45.167Z,0.00
2018-07-05T02:03:45.272Z,0.00
2018-07-05T02:04:45.148Z,0.00
2018-07-05T02:05:49.977Z,0.00
2018-07-05T02:06:45.124Z,0.00
2018-07-05T02:07:45.117Z,0.00
2018-07-05T02:08:45.107Z,0.00
2018-07-05T02:09:45.126Z,0.00
2018-07-05T02:10:45.082Z,0.00
2018-07-05T02:11:45.070Z,0.00
2018-07-05T02:12:45.102Z,0.00
2018-07-05T02:13:45.052Z,0.00
2018-07-05T02:14:45.045Z,0.00
2018-07-05T02:15:45.052Z,0.00
2018-07-05T02:16:45.018Z,0.00
2018-07-05T02:17:45.010Z,0.00
2018-07-05T02:18:44.998Z,0.00
2018-07-05T02:19:45.023Z,0.00
2018-07-05T02:20:44.974Z,0.00
2018-07-05T02:21:44.985Z,0.00
2018-07-05T02:22:44.958Z,0.00
2018-07-05T02:23:44.942Z,0.00
2018-07-05T02:24:44.931Z,0.00
2018-07-05T02:25:44.928Z,0.00
2018-07-05T02:26:44.982Z,0.00
2018-07-05T02:27:44.902Z,0.00
2018-07-05T02:28:44.889Z,0.00
2018-07-05T02:29:44.880Z,0.00
2018-07-05T02:30:44.869Z,0.00
2018-07-05T02:31:44.860Z,0.00
2018-07-05T02:32:44.868Z,0.00
2018-07-05T02:33:44.871Z,0.00
2018-07-05T02:34:44.824Z,0.00
2018-07-05T02:35:44.816Z,0.00
2018-07-05T02:36:44.805Z,0.00
2018-07-05T02:37:44.796Z,0.00
2018-07-05T02:38:44.820Z,0.00
2018-07-05T02:39:44.776Z,0.00
2018-07-05T02:40:44.799Z,0.00
2018-07-05T02:41:44.751Z,0.00
2018-07-05T02:42:44.742Z,0.00
2018-07-05T02:43:44.731Z,0.00
2018-07-05T02:44:44.739Z,0.00
2018-07-05T02:45:44.703Z,0.00
2018-07-05T02:46:44.698Z,4.00
2018-07-05T02:47:44.723Z,4.00
2018-07-05T02:48:44.674Z,4.00
2018-07-05T02:49:44.664Z,0.00
2018-07-05T02:50:44.675Z,0.00
2018-07-05T02:51:44.642Z,4.00
2018-07-05T02:52:44.632Z,4.00
2018-07-05T02:53:44.622Z,4.00
2018-07-05T02:54:44.653Z,4.00
2018-07-05T02:55:44.598Z,4.00
2018-07-05T02:56:44.624Z,8.00
2018-07-05T02:57:44.581Z,4.00
2018-07-05T02:58:44.569Z,8.00
2018-07-05T02:59:44.555Z,4.00
2018-07-05T03:00:44.546Z,8.00
2018-07-05T03:01:44.663Z,8.00
2018-07-05T03:02:44.551Z,12.00
2018-07-05T03:03:44.515Z,12.00
2018-07-05T03:04:44.501Z,12.00
2018-07-05T03:05:44.490Z,12.00
2018-07-05T03:06:49.280Z,20.00
2018-07-05T03:07:44.473Z,20.00
2018-07-05T03:08:44.544Z,24.00
2018-07-05T03:09:44.453Z,24.00
2018-07-05T03:10:44.440Z,24.00
2018-07-05T03:11:44.427Z,28.00
2018-07-05T03:12:44.418Z,36.00
2018-07-05T03:13:44.441Z,36.00
2018-07-05T03:14:44.396Z,40.00
2018-07-05T03:15:44.419Z,44.00
2018-07-05T03:16:44.371Z,44.00
2018-07-05T03:17:44.360Z,52.00
2018-07-05T03:18:44.353Z,56.00
2018-07-05T03:19:44.378Z,60.00
2018-07-05T03:20:44.334Z,68.00
2018-07-05T03:21:44.318Z,72.00
2018-07-05T03:22:44.351Z,76.00
2018-07-05T03:23:44.301Z,80.00
2018-07-05T03:24:44.288Z,88.00
2018-07-05T03:25:44.311Z,92.00
2018-07-05T03:26:44.264Z,100.00
2018-07-05T03:27:44.254Z,104.00
2018-07-05T03:28:44.249Z,112.00
2018-07-05T03:29:44.268Z,120.00
2018-07-05T03:30:44.222Z,128.00
2018-07-05T03:31:44.234Z,136.00
2018-07-05T03:32:44.202Z,140.00
2018-07-05T03:33:44.194Z,144.00
2018-07-05T03:34:44.180Z,152.00
2018-07-05T03:35:44.169Z,156.00
2018-07-05T03:36:44.259Z,172.00
2018-07-05T03:37:44.169Z,184.00
2018-07-05T03:38:44.210Z,196.00
2018-07-05T03:39:44.127Z,208.00
2018-07-05T03:40:44.115Z,224.00
2018-07-05T03:41:44.100Z,240.00
2018-07-05T03:42:44.191Z,248.00
2018-07-05T03:43:44.153Z,260.00
2018-07-05T03:44:44.071Z,276.00
2018-07-05T03:45:44.061Z,288.00
2018-07-05T03:46:44.051Z,300.00
2018-07-05T03:47:44.037Z,316.00
2018-07-05T03:48:44.028Z,324.00
2018-07-05T03:49:44.038Z,324.00
2018-07-05T03:50:44.039Z,332.00
2018-07-05T03:51:43.997Z,336.00
2018-07-05T03:52:43.982Z,340.00
2018-07-05T03:53:43.972Z,344.00
2018-07-05T03:54:43.970Z,352.00
2018-07-05T03:55:43.988Z,356.00
2018-07-05T03:56:43.949Z,356.00
2018-07-05T03:57:43.964Z,352.00
2018-07-05T03:58:43.920Z,356.00
2018-07-05T03:59:43.911Z,356.00
2018-07-05T04:00:43.918Z,364.00
2018-07-05T04:01:43.889Z,376.00
2018-07-05T04:02:44.015Z,392.00
2018-07-05T04:03:43.865Z,404.00
2018-07-05T04:04:43.891Z,416.00
2018-07-05T04:05:43.846Z,424.00
2018-07-05T04:06:43.878Z,432.00
2018-07-05T04:07:48.621Z,440.00
2018-07-05T04:08:43.811Z,452.00
2018-07-05T04:09:43.800Z,468.00
2018-07-05T04:10:43.794Z,484.00
2018-07-05T04:11:43.820Z,504.00
2018-07-05T04:12:43.804Z,520.00
2018-07-05T04:13:43.757Z,536.00
2018-07-05T04:14:43.749Z,548.00
2018-07-05T04:15:43.795Z,548.00
2018-07-05T04:16:43.727Z,544.00
2018-07-05T04:17:43.737Z,548.00
2018-07-05T04:18:43.778Z,556.00
2018-07-05T04:19:43.696Z,564.00
2018-07-05T04:20:43.685Z,580.00
2018-07-05T04:21:43.686Z,596.00
2018-07-05T04:22:43.662Z,612.00
2018-07-05T04:23:43.707Z,624.00
2018-07-05T04:24:43.661Z,632.00
2018-07-05T04:25:43.741Z,652.00
2018-07-05T04:26:43.620Z,668.00
2018-07-05T04:27:43.609Z,700.00
2018-07-05T04:28:43.599Z,732.00
2018-07-05T04:29:43.590Z,760.00
2018-07-05T04:30:43.603Z,792.00
2018-07-05T04:31:43.567Z,820.00
2018-07-05T04:32:43.603Z,848.00
2018-07-05T04:33:43.548Z,880.00
2018-07-05T04:34:43.535Z,900.00
2018-07-05T04:35:43.527Z,924.00
2018-07-05T04:36:43.536Z,952.00
2018-07-05T04:37:43.507Z,980.00
2018-07-05T04:38:43.496Z,1008.00
2018-07-05T04:39:43.538Z,1036.00
2018-07-05T04:40:43.480Z,1068.00
2018-07-05T04:41:43.463Z,1104.00
2018-07-05T04:42:43.475Z,1140.00
2018-07-05T04:43:43.448Z,1188.00
2018-07-05T04:44:43.436Z,1232.00
2018-07-05T04:45:43.427Z,1272.00
2018-07-05T04:46:43.458Z,1308.00
2018-07-05T04:47:43.423Z,1336.00
2018-07-05T04:48:43.392Z,1368.00
2018-07-05T04:49:43.387Z,1400.00
2018-07-05T04:50:43.375Z,1436.00
2018-07-05T04:51:43.368Z,1472.00
2018-07-05T04:52:43.354Z,1500.00
2018-07-05T04:53:43.398Z,1520.00
2018-07-05T04:54:43.335Z,1524.00
2018-07-05T04:55:43.322Z,1528.00
2018-07-05T04:56:43.314Z,1540.00
2018-07-05T04:57:43.301Z,1556.00
2018-07-05T04:58:43.296Z,1560.00
2018-07-05T04:59:43.299Z,1528.00
2018-07-05T05:00:43.304Z,1472.00
2018-07-05T05:01:43.261Z,1428.00
2018-07-05T05:02:43.275Z,1428.00
2018-07-05T05:03:43.320Z,1444.00
2018-07-05T05:04:43.229Z,1484.00
2018-07-05T05:05:43.240Z,1472.00
2018-07-05T05:06:43.211Z,1456.00
2018-07-05T05:07:43.241Z,1456.00
2018-07-05T05:08:48.020Z,1468.00
2018-07-05T05:09:43.181Z,1476.00
2018-07-05T05:10:43.168Z,1484.00
2018-07-05T05:11:43.176Z,1496.00
2018-07-05T05:12:43.145Z,1504.00
2018-07-05T05:13:43.136Z,1520.00
2018-07-05T05:14:43.162Z,1532.00
2018-07-05T05:15:43.118Z,1552.00
2018-07-05T05:16:43.112Z,1568.00
2018-07-05T05:17:43.114Z,1584.00
2018-07-05T05:18:43.085Z,1588.00
2018-07-05T05:19:43.077Z,1600.00
2018-07-05T05:20:43.064Z,1604.00
2018-07-05T05:21:43.091Z,1604.00
2018-07-05T05:22:43.042Z,1596.00
2018-07-05T05:23:43.069Z,1592.00
2018-07-05T05:24:43.023Z,1588.00
2018-07-05T05:25:43.014Z,1600.00
2018-07-05T05:26:43.004Z,1612.00
2018-07-05T05:27:42.992Z,1616.00
2018-07-05T05:28:43.021Z,1620.00
2018-07-05T05:29:42.989Z,1632.00
2018-07-05T05:30:42.958Z,1648.00
2018-07-05T05:31:42.950Z,1664.00
2018-07-05T05:32:42.934Z,1672.00
2018-07-05T05:33:42.927Z,1688.00
2018-07-05T05:34:42.917Z,1704.00
2018-07-05T05:35:42.975Z,1708.00
2018-07-05T05:36:42.894Z,1724.00
2018-07-05T05:37:42.884Z,1736.00
2018-07-05T05:38:42.877Z,1740.00
2018-07-05T05:39:42.862Z,1740.00
2018-07-05T05:40:42.885Z,1748.00
2018-07-05T05:41:42.842Z,1752.00
2018-07-05T05:42:42.869Z,1752.00
2018-07-05T05:43:42.823Z,1756.00
2018-07-05T05:44:42.810Z,1760.00
2018-07-05T05:45:42.795Z,1772.00
2018-07-05T05:46:42.840Z,1784.00
2018-07-05T05:47:42.839Z,1784.00
2018-07-05T05:48:42.764Z,1792.00
2018-07-05T05:49:42.789Z,1800.00
2018-07-05T05:50:42.739Z,1816.00
2018-07-05T05:51:42.732Z,1832.00
2018-07-05T05:52:42.760Z,1852.00
2018-07-05T05:53:42.706Z,1868.00
2018-07-05T05:54:42.696Z,1888.00
2018-07-05T05:55:42.718Z,1912.00
2018-07-05T05:56:42.715Z,1936.00
2018-07-05T05:57:42.670Z,1956.00
2018-07-05T05:58:42.686Z,1944.00
2018-07-05T05:59:42.643Z,1928.00
2018-07-05T06:00:42.642Z,1936.00
2018-07-05T06:01:42.630Z,1928.00
2018-07-05T06:02:42.611Z,1940.00
2018-07-05T06:03:42.639Z,1932.00
2018-07-05T06:04:42.665Z,1928.00
2018-07-05T06:05:42.578Z,1924.00
2018-07-05T06:06:42.563Z,1912.00
2018-07-05T06:07:42.552Z,1964.00
2018-07-05T06:08:42.540Z,2000.00
2018-07-05T06:09:47.355Z,2024.00
2018-07-05T06:10:42.602Z,2036.00
2018-07-05T06:11:42.509Z,2048.00
2018-07-05T06:12:42.498Z,2060.00
2018-07-05T06:13:42.489Z,2068.00
2018-07-05T06:14:42.479Z,2072.00
2018-07-05T06:15:42.467Z,2092.00
2018-07-05T06:16:42.495Z,2108.00
2018-07-05T06:17:42.494Z,2144.00
2018-07-05T06:18:42.519Z,2164.00
2018-07-05T06:19:42.420Z,2184.00
2018-07-05T06:20:42.412Z,2200.00
2018-07-05T06:21:42.399Z,2216.00
2018-07-05T06:22:42.430Z,2220.00
2018-07-05T06:23:42.377Z,2208.00
2018-07-05T06:24:42.590Z,2192.00
2018-07-05T06:25:42.392Z,2184.00
2018-07-05T06:26:42.342Z,2160.00
2018-07-05T06:27:42.335Z,2136.00
2018-07-05T06:28:42.358Z,2184.00
2018-07-05T06:29:42.313Z,2260.00
2018-07-05T06:30:42.301Z,2328.00
2018-07-05T06:31:42.323Z,2344.00
2018-07-05T06:32:42.277Z,2344.00
2018-07-05T06:33:42.266Z,2344.00
2018-07-05T06:34:42.290Z,2364.00
2018-07-05T06:35:42.245Z,2404.00
2018-07-05T06:36:42.237Z,2428.00
2018-07-05T06:37:42.222Z,2440.00
2018-07-05T06:38:42.256Z,2428.00
2018-07-05T06:39:42.205Z,2368.00
2018-07-05T06:40:42.226Z,2328.00
2018-07-05T06:41:42.178Z,2332.00
2018-07-05T06:42:42.170Z,2328.00
2018-07-05T06:43:42.159Z,2340.00
2018-07-05T06:44:42.157Z,2348.00
2018-07-05T06:45:42.218Z,2348.00
2018-07-05T06:46:42.159Z,2340.00
2018-07-05T06:47:42.118Z,2344.00
2018-07-05T06:48:42.106Z,2336.00
2018-07-05T06:49:42.147Z,2328.00
2018-07-05T06:50:42.085Z,2312.00
2018-07-05T06:51:42.078Z,2300.00
2018-07-05T06:52:42.112Z,2300.00
2018-07-05T06:53:42.056Z,2312.00
2018-07-05T06:54:42.041Z,2332.00
2018-07-05T06:55:42.030Z,2368.00
2018-07-05T06:56:42.021Z,2388.00
2018-07-05T06:57:42.010Z,2416.00
2018-07-05T06:58:42.043Z,2460.00
2018-07-05T06:59:42.024Z,2492.00
2018-07-05T07:00:41.976Z,2520.00
2018-07-05T07:01:41.985Z,2540.00
2018-07-05T07:02:41.954Z,2556.00
2018-07-05T07:03:41.959Z,2564.00
2018-07-05T07:04:41.972Z,2584.00
2018-07-05T07:05:41.979Z,2592.00
2018-07-05T07:06:41.960Z,2596.00
2018-07-05T07:07:41.900Z,2608.00
2018-07-05T07:08:41.892Z,2612.00
2018-07-05T07:09:41.878Z,2624.00
2018-07-05T07:10:46.721Z,2624.00
2018-07-05T07:11:41.857Z,2624.00
2018-07-05T07:12:41.848Z,2636.00
2018-07-05T07:13:41.879Z,2644.00
2018-07-05T07:14:41.834Z,2656.00
2018-07-05T07:15:41.814Z,2680.00
2018-07-05T07:16:41.917Z,2708.00
2018-07-05T07:17:41.854Z,2736.00
2018-07-05T07:18:41.833Z,2796.00
2018-07-05T07:19:41.809Z,2820.00
2018-07-05T07:20:41.971Z,2804.00
2018-07-05T07:21:41.754Z,2764.00
2018-07-05T07:22:41.767Z,2700.00
2018-07-05T07:23:41.733Z,2692.00
2018-07-05T07:24:41.723Z,2764.00
2018-07-05T07:25:41.710Z,2832.00
2018-07-05T07:26:41.701Z,2912.00
2018-07-05T07:27:41.735Z,2988.00
2018-07-05T07:28:41.699Z,2996.00
2018-07-05T07:29:41.671Z,2972.00
2018-07-05T07:30:41.662Z,2996.00
2018-07-05T07:31:41.689Z,3040.00
2018-07-05T07:32:41.639Z,3156.00
2018-07-05T07:33:41.641Z,3288.00
2018-07-05T07:34:41.657Z,3344.00
2018-07-05T07:35:41.601Z,3380.00
2018-07-05T07:36:41.597Z,3420.00
2018-07-05T07:37:41.637Z,3448.00
2018-07-05T07:38:41.581Z,3500.00
2018-07-05T07:39:41.573Z,3496.00
2018-07-05T07:40:41.577Z,3508.00
2018-07-05T07:41:41.573Z,3576.00
2018-07-05T07:42:41.534Z,3664.00
2018-07-05T07:43:41.523Z,3760.00
2018-07-05T07:44:41.533Z,3828.00
2018-07-05T07:45:41.531Z,3860.00
2018-07-05T07:46:41.530Z,3864.00
2018-07-05T07:47:41.484Z,3844.00
2018-07-05T07:48:41.497Z,3776.00
2018-07-05T07:49:41.460Z,3732.00
2018-07-05T07:50:41.452Z,3748.00
2018-07-05T07:51:41.451Z,3748.00
2018-07-05T07:52:41.446Z,3764.00
2018-07-05T07:53:41.419Z,3848.00
2018-07-05T07:54:41.408Z,3888.00
2018-07-05T07:55:41.431Z,3888.00
2018-07-05T07:56:41.412Z,3796.00
2018-07-05T07:57:41.376Z,3780.00
2018-07-05T07:58:41.429Z,3876.00
2018-07-05T07:59:41.358Z,3976.00
2018-07-05T08:00:41.342Z,4088.00
2018-07-05T08:01:41.334Z,4228.00
2018-07-05T08:02:41.346Z,4396.00
2018-07-05T08:03:41.345Z,4564.00
2018-07-05T08:04:41.301Z,4708.00
2018-07-05T08:05:41.325Z,4836.00
2018-07-05T08:06:41.338Z,4976.00
2018-07-05T08:07:41.269Z,5048.00
2018-07-05T08:08:41.261Z,5072.00
2018-07-05T08:09:41.296Z,5052.00
2018-07-05T08:10:41.278Z,5064.00
2018-07-05T08:11:46.049Z,5000.00
2018-07-05T08:12:41.231Z,5004.00
2018-07-05T08:13:41.206Z,4984.00
2018-07-05T08:14:41.192Z,4900.00
2018-07-05T08:15:41.823Z,4848.00
2018-07-05T08:16:41.255Z,4816.00
2018-07-05T08:17:41.163Z,4864.00
2018-07-05T08:18:41.155Z,4800.00
2018-07-05T08:19:41.166Z,4772.00
2018-07-05T08:20:41.136Z,4716.00
2018-07-05T08:21:41.161Z,4732.00
2018-07-05T08:22:41.115Z,4804.00
2018-07-05T08:23:41.120Z,4972.00
2018-07-05T08:24:41.089Z,5204.00
2018-07-05T08:25:41.083Z,5332.00
2018-07-05T08:26:41.089Z,5444.00
2018-07-05T08:27:41.094Z,5532.00
2018-07-05T08:28:41.053Z,5632.00
2018-07-05T08:29:41.041Z,5736.00
2018-07-05T08:30:41.054Z,5776.00
2018-07-05T08:31:41.018Z,5800.00
2018-07-05T08:32:41.022Z,5852.00
2018-07-05T08:33:41.040Z,5872.00
2018-07-05T08:34:40.983Z,5868.00
2018-07-05T08:35:40.973Z,5816.00
2018-07-05T08:36:40.963Z,5768.00
2018-07-05T08:37:40.991Z,5740.00
2018-07-05T08:38:40.941Z,5728.00
2018-07-05T08:39:40.949Z,5700.00
2018-07-05T08:40:40.945Z,5628.00
2018-07-05T08:41:40.909Z,5584.00
2018-07-05T08:42:40.905Z,5588.00
2018-07-05T08:43:40.891Z,5564.00
2018-07-05T08:44:40.931Z,5500.00
2018-07-05T08:45:40.870Z,5452.00
2018-07-05T08:46:40.860Z,5412.00
2018-07-05T08:47:40.869Z,5384.00
2018-07-05T08:48:40.851Z,5408.00
2018-07-05T08:49:40.828Z,5428.00
2018-07-05T08:50:40.835Z,5508.00
2018-07-05T08:51:40.836Z,5508.00
2018-07-05T08:52:40.795Z,5448.00
2018-07-05T08:53:40.829Z,5436.00
2018-07-05T08:54:40.797Z,5440.00
2018-07-05T08:55:41.095Z,5444.00
2018-07-05T08:56:40.797Z,5464.00
2018-07-05T08:57:40.768Z,5488.00
2018-07-05T08:58:40.760Z,5504.00
2018-07-05T08:59:41.043Z,5504.00
2018-07-05T09:00:40.711Z,5524.00
2018-07-05T09:01:40.822Z,5560.00
2018-07-05T09:02:40.724Z,5604.00
2018-07-05T09:03:40.682Z,5660.00
2018-07-05T09:04:40.669Z,5704.00
2018-07-05T09:05:40.684Z,5780.00
2018-07-05T09:06:40.649Z,5864.00
2018-07-05T09:07:40.687Z,5956.00
2018-07-05T09:08:40.684Z,6020.00
2018-07-05T09:09:40.619Z,6084.00
2018-07-05T09:10:40.606Z,6156.00
2018-07-05T09:11:40.597Z,6216.00
2018-07-05T09:12:45.422Z,6232.00
2018-07-05T09:13:40.576Z,6264.00
2018-07-05T09:14:40.654Z,6296.00
2018-07-05T09:15:40.572Z,6324.00
2018-07-05T09:16:40.551Z,6356.00
2018-07-05T09:17:40.710Z,6372.00
2018-07-05T09:18:40.524Z,6380.00
2018-07-05T09:19:40.541Z,6388.00
2018-07-05T09:20:40.539Z,6404.00
2018-07-05T09:21:40.501Z,6416.00
2018-07-05T09:22:40.498Z,6424.00
2018-07-05T09:23:40.474Z,6452.00
2018-07-05T09:24:40.459Z,6480.00
2018-07-05T09:25:40.544Z,6516.00
2018-07-05T09:26:40.515Z,6552.00
2018-07-05T09:27:40.452Z,6580.00
2018-07-05T09:28:40.422Z,6604.00
2018-07-05T09:29:40.422Z,6632.00
2018-07-05T09:30:40.719Z,6660.00
2018-07-05T09:31:40.389Z,6688.00
2018-07-05T09:32:40.733Z,6708.00
2018-07-05T09:33:40.393Z,6728.00
2018-07-05T09:34:40.792Z,6760.00
2018-07-05T09:35:40.355Z,6792.00
2018-07-05T09:36:40.371Z,6824.00
2018-07-05T09:37:40.430Z,6844.00
2018-07-05T09:38:40.343Z,6848.00
2018-07-05T09:39:40.310Z,6860.00
2018-07-05T09:40:40.320Z,6872.00
2018-07-05T09:41:40.293Z,6892.00
2018-07-05T09:42:40.280Z,6904.00
2018-07-05T09:43:40.292Z,6920.00
2018-07-05T09:44:40.277Z,6920.00
2018-07-05T09:45:40.251Z,6912.00
2018-07-05T09:46:40.240Z,6896.00
2018-07-05T09:47:40.254Z,6868.00
2018-07-05T09:48:40.217Z,6824.00
2018-07-05T09:49:40.329Z,6788.00
2018-07-05T09:50:40.213Z,6768.00
2018-07-05T09:51:40.190Z,6744.00
2018-07-05T09:52:40.220Z,6732.00
2018-07-05T09:53:40.168Z,6732.00
2018-07-05T09:54:40.186Z,6736.00
2018-07-05T09:55:40.175Z,6740.00
2018-07-05T09:56:40.139Z,6740.00
2018-07-05T09:57:40.153Z,6724.00
2018-07-05T09:58:40.121Z,6700.00
2018-07-05T09:59:40.111Z,6716.00
2018-07-05T10:00:40.100Z,6764.00
2018-07-05T10:01:40.182Z,6832.00
2018-07-05T10:02:40.077Z,6940.00
2018-07-05T10:03:40.390Z,7048.00
2018-07-05T10:04:40.075Z,7152.00
2018-07-05T10:05:40.058Z,7268.00
2018-07-05T10:06:40.041Z,7372.00
2018-07-05T10:07:40.165Z,7424.00
2018-07-05T10:08:40.120Z,7448.00
2018-07-05T10:09:40.009Z,7512.00
2018-07-05T10:10:39.998Z,7560.00
2018-07-05T10:11:40.091Z,7604.00
2018-07-05T10:12:39.973Z,7640.00
2018-07-05T10:13:45.317Z,7704.00
2018-07-05T10:14:41.049Z,7768.00
2018-07-05T10:15:39.938Z,7808.00
2018-07-05T10:16:39.929Z,7844.00
2018-07-05T10:17:39.915Z,7876.00
2018-07-05T10:18:39.946Z,7904.00
2018-07-05T10:19:39.897Z,7912.00
2018-07-05T10:20:39.884Z,7932.00
2018-07-05T10:21:39.896Z,7940.00
2018-07-05T10:22:39.865Z,7952.00
2018-07-05T10:23:39.852Z,8000.00
2018-07-05T10:24:39.859Z,8048.00
2018-07-05T10:25:39.847Z,8008.00
2018-07-05T10:26:39.926Z,7968.00
2018-07-05T10:27:39.813Z,7884.00
2018-07-05T10:28:39.822Z,7792.00
2018-07-05T10:29:39.796Z,7684.00
2018-07-05T10:30:39.818Z,7608.00
2018-07-05T10:31:39.767Z,7536.00
2018-07-05T10:32:39.770Z,7468.00
2018-07-05T10:33:39.752Z,7404.00
2018-07-05T10:34:39.739Z,7376.00
2018-07-05T10:35:39.753Z,7336.00
2018-07-05T10:36:39.739Z,7260.00
2018-07-05T10:37:39.710Z,7176.00
2018-07-05T10:38:39.698Z,7140.00
2018-07-05T10:39:39.733Z,7108.00
2018-07-05T10:40:39.675Z,7088.00
2018-07-05T10:41:39.665Z,7076.00
2018-07-05T10:42:39.710Z,7072.00
2018-07-05T10:43:39.643Z,7056.00
2018-07-05T10:44:39.633Z,7052.00
2018-07-05T10:45:39.623Z,7036.00
2018-07-05T10:46:39.625Z,7000.00
2018-07-05T10:47:39.604Z,6964.00
2018-07-05T10:48:39.629Z,6928.00
2018-07-05T10:49:39.606Z,6912.00
2018-07-05T10:50:39.572Z,6932.00
2018-07-05T10:51:39.560Z,6972.00
2018-07-05T10:52:39.552Z,7032.00
2018-07-05T10:53:39.555Z,7076.00
2018-07-05T10:54:39.712Z,7120.00
2018-07-05T10:55:39.524Z,7168.00
2018-07-05T10:56:39.534Z,7224.00
2018-07-05T10:57:39.497Z,7292.00
2018-07-05T10:58:39.488Z,7324.00
2018-07-05T10:59:39.483Z,7324.00
2018-07-05T11:00:39.536Z,7320.00
2018-07-05T11:01:39.464Z,7296.00
2018-07-05T11:02:39.454Z,7324.00
2018-07-05T11:03:39.461Z,7332.00
2018-07-05T11:04:39.433Z,7336.00
2018-07-05T11:05:39.418Z,7364.00
2018-07-05T11:06:39.447Z,7356.00
2018-07-05T11:07:39.423Z,7352.00
2018-07-05T11:08:39.387Z,7372.00
2018-07-05T11:09:39.419Z,7396.00
2018-07-05T11:10:39.390Z,7384.00
2018-07-05T11:11:39.358Z,7368.00
2018-07-05T11:12:39.386Z,7384.00
2018-07-05T11:13:39.338Z,7404.00
2018-07-05T11:14:44.234Z,7452.00
2018-07-05T11:15:39.318Z,7496.00
2018-07-05T11:16:39.365Z,7512.00
2018-07-05T11:17:39.316Z,7544.00
2018-07-05T11:18:39.325Z,7636.00
2018-07-05T11:19:39.277Z,7652.00
2018-07-05T11:20:39.266Z,7672.00
2018-07-05T11:21:39.265Z,7668.00
2018-07-05T11:22:39.246Z,7696.00
2018-07-05T11:23:39.234Z,7724.00
2018-07-05T11:24:39.279Z,7760.00
2018-07-05T11:25:39.214Z,7760.00
2018-07-05T11:26:39.206Z,7760.00
2018-07-05T11:27:39.197Z,7764.00
2018-07-05T11:28:39.196Z,7748.00
2018-07-05T11:29:39.184Z,7668.00
2018-07-05T11:30:39.198Z,7576.00
2018-07-05T11:31:39.177Z,7484.00
2018-07-05T11:32:39.142Z,7412.00
2018-07-05T11:33:39.134Z,7336.00
2018-07-05T11:34:39.119Z,7232.00
2018-07-05T11:35:39.125Z,7124.00
2018-07-05T11:36:39.141Z,7016.00
2018-07-05T11:37:39.088Z,6960.00
2018-07-05T11:38:39.101Z,6924.00
2018-07-05T11:39:39.068Z,6876.00
2018-07-05T11:40:39.060Z,6816.00
2018-07-05T11:41:39.049Z,6804.00
2018-07-05T11:42:39.101Z,6804.00
2018-07-05T11:43:39.029Z,6684.00
2018-07-05T11:44:39.020Z,6500.00
2018-07-05T11:45:39.032Z,6412.00
2018-07-05T11:46:39.035Z,6356.00
2018-07-05T11:47:38.991Z,6280.00
2018-07-05T11:48:39.012Z,6256.00
2018-07-05T11:49:38.983Z,6228.00
2018-07-05T11:50:38.958Z,6096.00
2018-07-05T11:51:38.948Z,5864.00
2018-07-05T11:52:38.964Z,5716.00
2018-07-05T11:53:38.932Z,5688.00
2018-07-05T11:54:38.957Z,5632.00
2018-07-05T11:55:38.908Z,5576.00
2018-07-05T11:56:38.907Z,5604.00
2018-07-05T11:57:38.891Z,5532.00
2018-07-05T11:58:38.887Z,5472.00
2018-07-05T11:59:38.894Z,5492.00
2018-07-05T12:00:38.892Z,5368.00
2018-07-05T12:01:38.846Z,5216.00
2018-07-05T12:02:38.837Z,5172.00
2018-07-05T12:03:38.842Z,5096.00
2018-07-05T12:04:38.817Z,5004.00
2018-07-05T12:05:38.810Z,4936.00
2018-07-05T12:06:38.859Z,4936.00
2018-07-05T12:07:38.785Z,5216.00
2018-07-05T12:08:38.868Z,5368.00
2018-07-05T12:09:38.761Z,5404.00
2018-07-05T12:10:38.904Z,5476.00
2018-07-05T12:11:38.744Z,5600.00
2018-07-05T12:12:38.781Z,5420.00
2018-07-05T12:13:38.742Z,5204.00
2018-07-05T12:14:38.732Z,4704.00
2018-07-05T12:15:43.520Z,4652.00
2018-07-05T12:16:38.696Z,4764.00
2018-07-05T12:17:38.696Z,4860.00
2018-07-05T12:18:38.704Z,5024.00
2018-07-05T12:19:38.659Z,5292.00
2018-07-05T12:20:38.670Z,5524.00
2018-07-05T12:21:38.641Z,5732.00
2018-07-05T12:22:38.630Z,5844.00
2018-07-05T12:23:38.622Z,5960.00
2018-07-05T12:24:38.658Z,5948.00
2018-07-05T12:25:38.600Z,5740.00